sensor_id;sensor_type;location;lat;lon;timestamp;P1;durP1;ratioP1;P2;durP2;ratioP2
64885;SDS011;51514;52.206;5.114;2023-11-18T00:01:02;5.38;;;3.95;;
64885;SDS011;51514;52.206;5.114;2023-11-18T00:03:28;5.43;;;4.13;;
64885;SDS011;51514;52.206;5.114;2023-11-18T00:05:53;5.20;;;3.67;;
64885;SDS011;51514;52.206;5.114;2023-11-18T00:08:19;6.05;;;4.30;;
64885;SDS011;51514;52.206;5.114;2023-11-18T00:10:44;5.97;;;4.10;;
64885;SDS011;51514;52.206;5.114;2023-11-18T00:13:10;5.60;;;4.28;;
64885;SDS011;51514;52.206;5.114;2023-11-18T00:15:35;5.43;;;4.10;;
64885;SDS011;51514;52.206;5.114;2023-11-18T00:18:01;4.60;;;3.47;;
64885;SDS011;51514;52.206;5.114;2023-11-18T00:20:26;7.20;;;4.15;;
64885;SDS011;51514;52.206;5.114;2023-11-18T00:22:51;5.97;;;4.32;;
64885;SDS011;51514;52.206;5.114;2023-11-18T00:25:18;5.82;;;4.40;;
64885;SDS011;51514;52.206;5.114;2023-11-18T00:27:44;6.18;;;4.63;;
64885;SDS011;51514;52.206;5.114;2023-11-18T00:30:09;6.03;;;4.70;;
64885;SDS011;51514;52.206;5.114;2023-11-18T00:32:38;6.10;;;4.00;;
64885;SDS011;51514;52.206;5.114;2023-11-18T00:35:04;6.22;;;4.20;;
64885;SDS011;51514;52.206;5.114;2023-11-18T00:37:29;5.72;;;4.15;;
64885;SDS011;51514;52.206;5.114;2023-11-18T00:39:56;5.25;;;3.70;;
64885;SDS011;51514;52.206;5.114;2023-11-18T00:42:21;6.00;;;4.50;;
64885;SDS011;51514;52.206;5.114;2023-11-18T00:44:47;6.00;;;4.38;;
64885;SDS011;51514;52.206;5.114;2023-11-18T00:47:12;6.13;;;4.13;;
64885;SDS011;51514;52.206;5.114;2023-11-18T00:49:38;4.43;;;3.95;;
64885;SDS011;51514;52.206;5.114;2023-11-18T00:52:03;4.82;;;3.80;;
64885;SDS011;51514;52.206;5.114;2023-11-18T00:54:28;4.97;;;3.70;;
64885;SDS011;51514;52.206;5.114;2023-11-18T00:56:54;6.20;;;4.53;;
64885;SDS011;51514;52.206;5.114;2023-11-18T00:59:19;5.40;;;3.78;;
64885;SDS011;51514;52.206;5.114;2023-11-18T01:01:45;5.85;;;4.15;;
64885;SDS011;51514;52.206;5.114;2023-11-18T01:04:10;6.18;;;4.18;;
64885;SDS011;51514;52.206;5.114;2023-11-18T01:06:35;5.95;;;4.50;;
64885;SDS011;51514;52.206;5.114;2023-11-18T01:09:01;5.18;;;3.92;;
64885;SDS011;51514;52.206;5.114;2023-11-18T01:11:26;5.72;;;4.15;;
64885;SDS011;51514;52.206;5.114;2023-11-18T01:13:52;5.13;;;3.97;;
64885;SDS011;51514;52.206;5.114;2023-11-18T01:16:19;5.97;;;4.20;;
64885;SDS011;51514;52.206;5.114;2023-11-18T01:18:45;5.05;;;4.03;;
64885;SDS011;51514;52.206;5.114;2023-11-18T01:21:11;5.68;;;4.55;;
64885;SDS011;51514;52.206;5.114;2023-11-18T01:23:36;5.18;;;4.03;;
64885;SDS011;51514;52.206;5.114;2023-11-18T01:26:05;6.13;;;4.30;;
64885;SDS011;51514;52.206;5.114;2023-11-18T01:28:31;7.78;;;4.53;;
64885;SDS011;51514;52.206;5.114;2023-11-18T01:31:02;6.03;;;4.05;;
64885;SDS011;51514;52.206;5.114;2023-11-18T01:33:28;5.45;;;4.30;;
64885;SDS011;51514;52.206;5.114;2023-11-18T01:35:54;5.93;;;4.35;;
64885;SDS011;51514;52.206;5.114;2023-11-18T01:38:20;5.07;;;3.78;;
64885;SDS011;51514;52.206;5.114;2023-11-18T01:40:45;5.88;;;4.25;;
64885;SDS011;51514;52.206;5.114;2023-11-18T01:43:10;5.22;;;4.32;;
64885;SDS011;51514;52.206;5.114;2023-11-18T01:45:38;5.75;;;4.32;;
64885;SDS011;51514;52.206;5.114;2023-11-18T01:48:05;5.40;;;4.20;;
64885;SDS011;51514;52.206;5.114;2023-11-18T01:50:34;5.43;;;4.07;;
64885;SDS011;51514;52.206;5.114;2023-11-18T01:53:00;4.68;;;3.72;;
64885;SDS011;51514;52.206;5.114;2023-11-18T01:55:25;6.30;;;4.38;;
64885;SDS011;51514;52.206;5.114;2023-11-18T01:57:51;5.30;;;4.32;;
64885;SDS011;51514;52.206;5.114;2023-11-18T02:00:17;5.60;;;4.50;;
64885;SDS011;51514;52.206;5.114;2023-11-18T02:02:42;6.10;;;4.53;;
64885;SDS011;51514;52.206;5.114;2023-11-18T02:05:08;5.63;;;4.32;;
64885;SDS011;51514;52.206;5.114;2023-11-18T02:07:34;5.68;;;4.45;;
64885;SDS011;51514;52.206;5.114;2023-11-18T02:10:03;6.53;;;4.25;;
64885;SDS011;51514;52.206;5.114;2023-11-18T02:12:46;6.22;;;4.47;;
64885;SDS011;51514;52.206;5.114;2023-11-18T02:15:21;5.05;;;4.00;;
64885;SDS011;51514;52.206;5.114;2023-11-18T02:17:48;5.78;;;4.03;;
64885;SDS011;51514;52.206;5.114;2023-11-18T02:20:14;5.03;;;3.90;;
64885;SDS011;51514;52.206;5.114;2023-11-18T02:25:14;5.85;;;4.13;;
64885;SDS011;51514;52.206;5.114;2023-11-18T02:27:41;5.63;;;4.18;;
64885;SDS011;51514;52.206;5.114;2023-11-18T02:30:07;4.78;;;3.90;;
64885;SDS011;51514;52.206;5.114;2023-11-18T02:32:39;5.97;;;4.15;;
64885;SDS011;51514;52.206;5.114;2023-11-18T02:35:10;5.43;;;4.05;;
64885;SDS011;51514;52.206;5.114;2023-11-18T02:37:44;5.32;;;4.00;;
64885;SDS011;51514;52.206;5.114;2023-11-18T02:43:01;5.65;;;4.22;;
64885;SDS011;51514;52.206;5.114;2023-11-18T02:45:30;7.35;;;3.90;;
64885;SDS011;51514;52.206;5.114;2023-11-18T02:47:57;6.28;;;4.40;;
64885;SDS011;51514;52.206;5.114;2023-11-18T02:50:23;5.35;;;4.18;;
64885;SDS011;51514;52.206;5.114;2023-11-18T02:52:49;5.43;;;3.97;;
64885;SDS011;51514;52.206;5.114;2023-11-18T02:55:15;4.93;;;3.28;;
64885;SDS011;51514;52.206;5.114;2023-11-18T02:57:40;4.80;;;3.42;;
64885;SDS011;51514;52.206;5.114;2023-11-18T03:00:06;5.88;;;3.83;;
64885;SDS011;51514;52.206;5.114;2023-11-18T03:02:41;5.88;;;4.00;;
64885;SDS011;51514;52.206;5.114;2023-11-18T03:05:07;5.90;;;3.58;;
64885;SDS011;51514;52.206;5.114;2023-11-18T03:07:36;4.95;;;3.75;;
64885;SDS011;51514;52.206;5.114;2023-11-18T03:10:02;5.40;;;4.00;;
64885;SDS011;51514;52.206;5.114;2023-11-18T03:12:28;4.70;;;3.72;;
64885;SDS011;51514;52.206;5.114;2023-11-18T03:14:53;6.22;;;3.75;;
64885;SDS011;51514;52.206;5.114;2023-11-18T03:17:19;5.20;;;4.03;;
64885;SDS011;51514;52.206;5.114;2023-11-18T03:19:45;5.45;;;3.80;;
64885;SDS011;51514;52.206;5.114;2023-11-18T03:22:11;5.82;;;4.10;;
64885;SDS011;51514;52.206;5.114;2023-11-18T03:24:38;4.95;;;4.13;;
64885;SDS011;51514;52.206;5.114;2023-11-18T03:27:03;6.35;;;4.07;;
64885;SDS011;51514;52.206;5.114;2023-11-18T03:29:28;5.80;;;3.92;;
64885;SDS011;51514;52.206;5.114;2023-11-18T03:31:54;4.90;;;3.92;;
64885;SDS011;51514;52.206;5.114;2023-11-18T03:34:19;5.38;;;3.47;;
64885;SDS011;51514;52.206;5.114;2023-11-18T03:36:48;5.00;;;3.67;;
64885;SDS011;51514;52.206;5.114;2023-11-18T03:39:13;5.47;;;4.28;;
64885;SDS011;51514;52.206;5.114;2023-11-18T03:41:39;4.50;;;3.40;;
64885;SDS011;51514;52.206;5.114;2023-11-18T03:44:09;5.35;;;3.92;;
64885;SDS011;51514;52.206;5.114;2023-11-18T03:46:38;5.28;;;4.00;;
64885;SDS011;51514;52.206;5.114;2023-11-18T03:49:03;5.10;;;4.00;;
64885;SDS011;51514;52.206;5.114;2023-11-18T03:51:29;4.82;;;3.45;;
64885;SDS011;51514;52.206;5.114;2023-11-18T03:53:54;4.70;;;3.47;;
64885;SDS011;51514;52.206;5.114;2023-11-18T03:56:20;4.50;;;3.30;;
64885;SDS011;51514;52.206;5.114;2023-11-18T03:58:46;5.38;;;3.63;;
64885;SDS011;51514;52.206;5.114;2023-11-18T04:01:24;6.18;;;4.03;;
64885;SDS011;51514;52.206;5.114;2023-11-18T04:03:52;4.90;;;4.15;;
64885;SDS011;51514;52.206;5.114;2023-11-18T04:06:18;5.25;;;3.92;;
64885;SDS011;51514;52.206;5.114;2023-11-18T04:08:46;4.63;;;3.70;;
64885;SDS011;51514;52.206;5.114;2023-11-18T04:11:12;4.60;;;3.55;;
64885;SDS011;51514;52.206;5.114;2023-11-18T04:13:41;5.88;;;3.72;;
64885;SDS011;51514;52.206;5.114;2023-11-18T04:16:10;4.68;;;3.30;;
64885;SDS011;51514;52.206;5.114;2023-11-18T04:18:38;4.75;;;3.70;;
64885;SDS011;51514;52.206;5.114;2023-11-18T04:21:05;5.32;;;3.55;;
64885;SDS011;51514;52.206;5.114;2023-11-18T04:23:31;5.90;;;3.60;;
64885;SDS011;51514;52.206;5.114;2023-11-18T04:25:57;4.78;;;3.60;;
64885;SDS011;51514;52.206;5.114;2023-11-18T04:28:23;5.15;;;3.72;;
64885;SDS011;51514;52.206;5.114;2023-11-18T04:30:48;6.10;;;3.97;;
64885;SDS011;51514;52.206;5.114;2023-11-18T04:33:13;5.78;;;3.83;;
64885;SDS011;51514;52.206;5.114;2023-11-18T04:35:39;5.05;;;3.47;;
64885;SDS011;51514;52.206;5.114;2023-11-18T04:38:04;4.50;;;3.38;;
64885;SDS011;51514;52.206;5.114;2023-11-18T04:40:30;3.72;;;3.13;;
64885;SDS011;51514;52.206;5.114;2023-11-18T04:42:55;4.72;;;3.60;;
64885;SDS011;51514;52.206;5.114;2023-11-18T04:45:21;4.72;;;3.42;;
64885;SDS011;51514;52.206;5.114;2023-11-18T04:47:46;4.85;;;3.30;;
64885;SDS011;51514;52.206;5.114;2023-11-18T04:50:11;5.13;;;3.58;;
64885;SDS011;51514;52.206;5.114;2023-11-18T04:52:37;4.68;;;3.42;;
64885;SDS011;51514;52.206;5.114;2023-11-18T04:55:03;4.25;;;3.35;;
64885;SDS011;51514;52.206;5.114;2023-11-18T04:57:30;5.22;;;3.40;;
64885;SDS011;51514;52.206;5.114;2023-11-18T04:59:56;4.88;;;3.35;;
64885;SDS011;51514;52.206;5.114;2023-11-18T05:02:21;6.38;;;3.65;;
64885;SDS011;51514;52.206;5.114;2023-11-18T05:04:47;4.70;;;3.60;;
64885;SDS011;51514;52.206;5.114;2023-11-18T05:07:12;4.25;;;3.10;;
64885;SDS011;51514;52.206;5.114;2023-11-18T05:09:37;4.38;;;3.33;;
64885;SDS011;51514;52.206;5.114;2023-11-18T05:12:03;3.95;;;3.25;;
64885;SDS011;51514;52.206;5.114;2023-11-18T05:14:28;4.25;;;3.17;;
64885;SDS011;51514;52.206;5.114;2023-11-18T05:16:54;3.55;;;2.95;;
64885;SDS011;51514;52.206;5.114;2023-11-18T05:19:19;4.82;;;3.50;;
64885;SDS011;51514;52.206;5.114;2023-11-18T05:21:44;4.90;;;3.67;;
64885;SDS011;51514;52.206;5.114;2023-11-18T05:26:39;5.90;;;3.75;;
64885;SDS011;51514;52.206;5.114;2023-11-18T05:29:05;5.32;;;3.40;;
64885;SDS011;51514;52.206;5.114;2023-11-18T05:31:31;5.60;;;3.50;;
64885;SDS011;51514;52.206;5.114;2023-11-18T05:33:58;5.30;;;3.72;;
64885;SDS011;51514;52.206;5.114;2023-11-18T05:36:23;4.75;;;3.80;;
64885;SDS011;51514;52.206;5.114;2023-11-18T05:38:52;5.93;;;3.63;;
64885;SDS011;51514;52.206;5.114;2023-11-18T05:41:19;5.25;;;3.65;;
64885;SDS011;51514;52.206;5.114;2023-11-18T05:43:52;5.03;;;3.75;;
64885;SDS011;51514;52.206;5.114;2023-11-18T05:46:21;5.30;;;3.70;;
64885;SDS011;51514;52.206;5.114;2023-11-18T05:48:51;4.65;;;3.10;;
64885;SDS011;51514;52.206;5.114;2023-11-18T05:51:24;5.28;;;3.55;;
64885;SDS011;51514;52.206;5.114;2023-11-18T05:53:50;4.35;;;3.25;;
64885;SDS011;51514;52.206;5.114;2023-11-18T05:56:16;5.15;;;3.33;;
64885;SDS011;51514;52.206;5.114;2023-11-18T05:58:44;5.07;;;3.75;;
64885;SDS011;51514;52.206;5.114;2023-11-18T06:01:10;6.70;;;3.88;;
64885;SDS011;51514;52.206;5.114;2023-11-18T06:03:36;5.15;;;3.40;;
64885;SDS011;51514;52.206;5.114;2023-11-18T06:06:06;5.45;;;3.88;;
64885;SDS011;51514;52.206;5.114;2023-11-18T06:08:35;4.57;;;3.53;;
64885;SDS011;51514;52.206;5.114;2023-11-18T06:11:08;4.63;;;3.35;;
64885;SDS011;51514;52.206;5.114;2023-11-18T06:16:08;5.32;;;4.00;;
64885;SDS011;51514;52.206;5.114;2023-11-18T06:18:34;4.22;;;3.30;;
64885;SDS011;51514;52.206;5.114;2023-11-18T06:21:01;5.25;;;3.50;;
64885;SDS011;51514;52.206;5.114;2023-11-18T06:23:26;5.43;;;3.65;;
64885;SDS011;51514;52.206;5.114;2023-11-18T06:25:51;5.22;;;3.60;;
64885;SDS011;51514;52.206;5.114;2023-11-18T06:28:17;4.43;;;3.53;;
64885;SDS011;51514;52.206;5.114;2023-11-18T06:30:43;4.93;;;3.08;;
64885;SDS011;51514;52.206;5.114;2023-11-18T06:33:09;5.13;;;3.42;;
64885;SDS011;51514;52.206;5.114;2023-11-18T06:35:34;5.05;;;3.53;;
64885;SDS011;51514;52.206;5.114;2023-11-18T06:38:00;5.90;;;3.60;;
64885;SDS011;51514;52.206;5.114;2023-11-18T06:40:25;4.45;;;3.50;;
64885;SDS011;51514;52.206;5.114;2023-11-18T06:42:52;4.53;;;3.38;;
64885;SDS011;51514;52.206;5.114;2023-11-18T06:45:19;4.68;;;3.40;;
64885;SDS011;51514;52.206;5.114;2023-11-18T06:47:47;5.28;;;3.58;;
64885;SDS011;51514;52.206;5.114;2023-11-18T06:50:14;4.72;;;3.22;;
64885;SDS011;51514;52.206;5.114;2023-11-18T06:52:40;4.95;;;3.53;;
64885;SDS011;51514;52.206;5.114;2023-11-18T06:55:10;4.60;;;3.10;;
64885;SDS011;51514;52.206;5.114;2023-11-18T06:57:36;4.68;;;2.92;;
64885;SDS011;51514;52.206;5.114;2023-11-18T07:00:02;4.95;;;3.50;;
64885;SDS011;51514;52.206;5.114;2023-11-18T07:02:32;4.50;;;2.97;;
64885;SDS011;51514;52.206;5.114;2023-11-18T07:04:58;4.75;;;3.30;;
64885;SDS011;51514;52.206;5.114;2023-11-18T07:07:23;4.72;;;3.22;;
64885;SDS011;51514;52.206;5.114;2023-11-18T07:09:48;5.03;;;3.42;;
64885;SDS011;51514;52.206;5.114;2023-11-18T07:12:14;5.57;;;3.45;;
64885;SDS011;51514;52.206;5.114;2023-11-18T07:14:40;5.38;;;3.50;;
64885;SDS011;51514;52.206;5.114;2023-11-18T07:17:05;4.93;;;3.40;;
64885;SDS011;51514;52.206;5.114;2023-11-18T07:19:30;4.78;;;3.60;;
64885;SDS011;51514;52.206;5.114;2023-11-18T07:21:58;4.90;;;3.08;;
64885;SDS011;51514;52.206;5.114;2023-11-18T07:24:24;5.35;;;3.30;;
64885;SDS011;51514;52.206;5.114;2023-11-18T07:26:49;4.75;;;2.97;;
64885;SDS011;51514;52.206;5.114;2023-11-18T07:29:15;4.65;;;3.13;;
64885;SDS011;51514;52.206;5.114;2023-11-18T07:31:42;4.20;;;2.78;;
64885;SDS011;51514;52.206;5.114;2023-11-18T07:34:08;4.00;;;2.72;;
64885;SDS011;51514;52.206;5.114;2023-11-18T07:36:33;3.78;;;2.95;;
64885;SDS011;51514;52.206;5.114;2023-11-18T07:38:59;5.85;;;3.28;;
64885;SDS011;51514;52.206;5.114;2023-11-18T07:41:28;4.72;;;3.10;;
64885;SDS011;51514;52.206;5.114;2023-11-18T07:43:54;4.88;;;3.08;;
64885;SDS011;51514;52.206;5.114;2023-11-18T07:46:21;5.35;;;3.13;;
64885;SDS011;51514;52.206;5.114;2023-11-18T07:48:50;5.15;;;3.50;;
64885;SDS011;51514;52.206;5.114;2023-11-18T07:51:20;4.38;;;3.08;;
64885;SDS011;51514;52.206;5.114;2023-11-18T07:53:47;4.22;;;3.25;;
64885;SDS011;51514;52.206;5.114;2023-11-18T07:56:13;4.10;;;3.05;;
64885;SDS011;51514;52.206;5.114;2023-11-18T07:58:39;5.50;;;3.58;;
64885;SDS011;51514;52.206;5.114;2023-11-18T08:01:10;5.60;;;2.85;;
64885;SDS011;51514;52.206;5.114;2023-11-18T08:03:36;4.82;;;3.25;;
64885;SDS011;51514;52.206;5.114;2023-11-18T08:06:02;5.03;;;3.60;;
64885;SDS011;51514;52.206;5.114;2023-11-18T08:08:28;4.80;;;2.95;;
64885;SDS011;51514;52.206;5.114;2023-11-18T08:10:53;4.15;;;2.75;;
64885;SDS011;51514;52.206;5.114;2023-11-18T08:13:20;3.58;;;2.78;;
64885;SDS011;51514;52.206;5.114;2023-11-18T08:15:46;4.07;;;2.90;;
64885;SDS011;51514;52.206;5.114;2023-11-18T08:18:12;4.28;;;2.70;;
64885;SDS011;51514;52.206;5.114;2023-11-18T08:20:38;5.85;;;2.70;;
64885;SDS011;51514;52.206;5.114;2023-11-18T08:23:03;3.92;;;2.88;;
64885;SDS011;51514;52.206;5.114;2023-11-18T08:25:32;3.88;;;2.53;;
64885;SDS011;51514;52.206;5.114;2023-11-18T08:28:05;5.30;;;3.17;;
64885;SDS011;51514;52.206;5.114;2023-11-18T08:30:31;4.88;;;3.00;;
64885;SDS011;51514;52.206;5.114;2023-11-18T08:32:58;4.85;;;3.20;;
64885;SDS011;51514;52.206;5.114;2023-11-18T08:35:24;4.55;;;3.05;;
64885;SDS011;51514;52.206;5.114;2023-11-18T08:37:49;5.72;;;3.22;;
64885;SDS011;51514;52.206;5.114;2023-11-18T08:40:16;6.05;;;3.33;;
64885;SDS011;51514;52.206;5.114;2023-11-18T08:42:45;6.68;;;2.92;;
64885;SDS011;51514;52.206;5.114;2023-11-18T08:47:44;4.35;;;2.97;;
64885;SDS011;51514;52.206;5.114;2023-11-18T08:50:15;5.32;;;3.33;;
64885;SDS011;51514;52.206;5.114;2023-11-18T08:52:42;9.07;;;3.35;;
64885;SDS011;51514;52.206;5.114;2023-11-18T08:55:15;4.10;;;2.90;;
64885;SDS011;51514;52.206;5.114;2023-11-18T08:57:50;4.60;;;2.93;;
64885;SDS011;51514;52.206;5.114;2023-11-18T09:00:29;4.13;;;2.88;;
64885;SDS011;51514;52.206;5.114;2023-11-18T09:03:15;6.38;;;3.20;;
64885;SDS011;51514;52.206;5.114;2023-11-18T09:05:52;6.82;;;3.00;;
64885;SDS011;51514;52.206;5.114;2023-11-18T09:08:32;5.18;;;3.28;;
64885;SDS011;51514;52.206;5.114;2023-11-18T09:11:07;5.53;;;3.67;;
64885;SDS011;51514;52.206;5.114;2023-11-18T09:13:40;5.78;;;3.03;;
64885;SDS011;51514;52.206;5.114;2023-11-18T09:16:25;4.45;;;2.95;;
64885;SDS011;51514;52.206;5.114;2023-11-18T09:18:54;5.57;;;2.95;;
64885;SDS011;51514;52.206;5.114;2023-11-18T09:21:21;5.20;;;3.03;;
64885;SDS011;51514;52.206;5.114;2023-11-18T09:23:50;6.45;;;3.40;;
64885;SDS011;51514;52.206;5.114;2023-11-18T09:26:15;5.82;;;3.38;;
64885;SDS011;51514;52.206;5.114;2023-11-18T09:28:41;4.70;;;2.85;;
64885;SDS011;51514;52.206;5.114;2023-11-18T09:31:07;4.47;;;2.95;;
64885;SDS011;51514;52.206;5.114;2023-11-18T09:33:40;3.65;;;2.50;;
64885;SDS011;51514;52.206;5.114;2023-11-18T09:36:16;5.57;;;3.53;;
64885;SDS011;51514;52.206;5.114;2023-11-18T09:38:43;7.80;;;2.50;;
64885;SDS011;51514;52.206;5.114;2023-11-18T09:41:11;5.78;;;2.80;;
64885;SDS011;51514;52.206;5.114;2023-11-18T09:43:38;4.40;;;2.90;;
64885;SDS011;51514;52.206;5.114;2023-11-18T09:46:10;3.83;;;2.47;;
64885;SDS011;51514;52.206;5.114;2023-11-18T09:51:28;4.57;;;2.85;;
64885;SDS011;51514;52.206;5.114;2023-11-18T09:54:01;5.20;;;2.60;;
64885;SDS011;51514;52.206;5.114;2023-11-18T09:56:37;4.88;;;2.85;;
64885;SDS011;51514;52.206;5.114;2023-11-18T10:02:24;4.80;;;2.72;;
64885;SDS011;51514;52.206;5.114;2023-11-18T10:04:50;3.95;;;2.78;;
64885;SDS011;51514;52.206;5.114;2023-11-18T10:07:23;3.88;;;2.60;;
64885;SDS011;51514;52.206;5.114;2023-11-18T10:09:53;4.63;;;2.67;;
64885;SDS011;51514;52.206;5.114;2023-11-18T10:12:22;5.15;;;2.72;;
64885;SDS011;51514;52.206;5.114;2023-11-18T10:14:48;5.53;;;3.08;;
64885;SDS011;51514;52.206;5.114;2023-11-18T10:17:17;4.82;;;2.90;;
64885;SDS011;51514;52.206;5.114;2023-11-18T10:19:53;5.32;;;2.55;;
64885;SDS011;51514;52.206;5.114;2023-11-18T10:22:29;4.35;;;2.67;;
64885;SDS011;51514;52.206;5.114;2023-11-18T10:24:57;4.25;;;2.38;;
64885;SDS011;51514;52.206;5.114;2023-11-18T10:27:26;3.33;;;2.40;;
64885;SDS011;51514;52.206;5.114;2023-11-18T10:29:56;3.88;;;2.58;;
64885;SDS011;51514;52.206;5.114;2023-11-18T10:32:22;4.07;;;2.55;;
64885;SDS011;51514;52.206;5.114;2023-11-18T10:34:52;3.05;;;2.35;;
64885;SDS011;51514;52.206;5.114;2023-11-18T10:37:22;3.72;;;2.30;;
64885;SDS011;51514;52.206;5.114;2023-11-18T10:39:48;6.47;;;2.88;;
64885;SDS011;51514;52.206;5.114;2023-11-18T10:42:17;4.73;;;2.50;;
64885;SDS011;51514;52.206;5.114;2023-11-18T10:44:57;4.50;;;2.53;;
64885;SDS011;51514;52.206;5.114;2023-11-18T10:47:24;3.67;;;2.45;;
64885;SDS011;51514;52.206;5.114;2023-11-18T10:49:53;4.07;;;2.40;;
64885;SDS011;51514;52.206;5.114;2023-11-18T10:52:21;8.57;;;2.63;;
64885;SDS011;51514;52.206;5.114;2023-11-18T10:54:54;3.22;;;2.50;;
64885;SDS011;51514;52.206;5.114;2023-11-18T10:57:21;2.85;;;2.28;;
64885;SDS011;51514;52.206;5.114;2023-11-18T11:00:00;3.55;;;2.30;;
64885;SDS011;51514;52.206;5.114;2023-11-18T11:02:31;8.15;;;2.45;;
64885;SDS011;51514;52.206;5.114;2023-11-18T11:05:04;4.00;;;2.25;;
64885;SDS011;51514;52.206;5.114;2023-11-18T11:07:31;4.55;;;2.33;;
64885;SDS011;51514;52.206;5.114;2023-11-18T11:09:57;2.88;;;2.20;;
64885;SDS011;51514;52.206;5.114;2023-11-18T11:12:25;6.47;;;3.45;;
64885;SDS011;51514;52.206;5.114;2023-11-18T11:17:30;3.70;;;2.00;;
64885;SDS011;51514;52.206;5.114;2023-11-18T11:20:04;4.65;;;2.13;;
64885;SDS011;51514;52.206;5.114;2023-11-18T11:28:16;3.13;;;2.40;;
64885;SDS011;51514;52.206;5.114;2023-11-18T11:30:46;3.63;;;2.58;;
64885;SDS011;51514;52.206;5.114;2023-11-18T11:35:48;3.30;;;2.63;;
64885;SDS011;51514;52.206;5.114;2023-11-18T11:38:22;2.90;;;2.10;;
64885;SDS011;51514;52.206;5.114;2023-11-18T11:40:49;4.18;;;2.53;;
64885;SDS011;51514;52.206;5.114;2023-11-18T11:43:17;3.60;;;2.05;;
64885;SDS011;51514;52.206;5.114;2023-11-18T11:45:47;3.60;;;2.30;;
64885;SDS011;51514;52.206;5.114;2023-11-18T11:48:16;4.25;;;2.53;;
64885;SDS011;51514;52.206;5.114;2023-11-18T11:51:02;2.88;;;2.00;;
64885;SDS011;51514;52.206;5.114;2023-11-18T11:53:58;2.97;;;2.00;;
64885;SDS011;51514;52.206;5.114;2023-11-18T11:56:42;3.35;;;2.50;;
64885;SDS011;51514;52.206;5.114;2023-11-18T11:59:08;4.25;;;2.20;;
64885;SDS011;51514;52.206;5.114;2023-11-18T12:01:36;4.85;;;2.25;;
64885;SDS011;51514;52.206;5.114;2023-11-18T12:04:03;4.57;;;2.13;;
64885;SDS011;51514;52.206;5.114;2023-11-18T12:06:33;5.07;;;2.63;;
64885;SDS011;51514;52.206;5.114;2023-11-18T12:09:00;3.47;;;2.40;;
64885;SDS011;51514;52.206;5.114;2023-11-18T12:11:32;4.50;;;2.38;;
64885;SDS011;51514;52.206;5.114;2023-11-18T12:14:05;4.88;;;2.13;;
64885;SDS011;51514;52.206;5.114;2023-11-18T12:17:20;5.70;;;2.45;;
64885;SDS011;51514;52.206;5.114;2023-11-18T12:19:32;3.45;;;2.00;;
64885;SDS011;51514;52.206;5.114;2023-11-18T12:22:09;5.30;;;2.08;;
64885;SDS011;51514;52.206;5.114;2023-11-18T12:24:39;4.18;;;2.33;;
64885;SDS011;51514;52.206;5.114;2023-11-18T12:27:05;3.28;;;1.95;;
64885;SDS011;51514;52.206;5.114;2023-11-18T12:29:43;3.17;;;1.80;;
64885;SDS011;51514;52.206;5.114;2023-11-18T12:32:09;3.03;;;2.15;;
64885;SDS011;51514;52.206;5.114;2023-11-18T12:34:50;2.95;;;2.08;;
64885;SDS011;51514;52.206;5.114;2023-11-18T12:42:59;4.05;;;2.25;;
64885;SDS011;51514;52.206;5.114;2023-11-18T12:45:42;3.83;;;1.98;;
64885;SDS011;51514;52.206;5.114;2023-11-18T12:48:15;2.45;;;1.60;;
64885;SDS011;51514;52.206;5.114;2023-11-18T12:50:51;4.05;;;2.20;;
64885;SDS011;51514;52.206;5.114;2023-11-18T12:53:20;3.03;;;1.95;;
64885;SDS011;51514;52.206;5.114;2023-11-18T12:55:49;3.92;;;1.75;;
64885;SDS011;51514;52.206;5.114;2023-11-18T12:58:14;4.45;;;2.30;;
64885;SDS011;51514;52.206;5.114;2023-11-18T13:00:40;3.72;;;2.20;;
64885;SDS011;51514;52.206;5.114;2023-11-18T13:03:08;3.97;;;2.40;;
64885;SDS011;51514;52.206;5.114;2023-11-18T13:05:35;3.92;;;1.95;;
64885;SDS011;51514;52.206;5.114;2023-11-18T13:08:02;5.63;;;2.10;;
64885;SDS011;51514;52.206;5.114;2023-11-18T13:10:28;4.18;;;1.98;;
64885;SDS011;51514;52.206;5.114;2023-11-18T13:12:53;3.80;;;1.88;;
64885;SDS011;51514;52.206;5.114;2023-11-18T13:15:19;3.95;;;1.90;;
64885;SDS011;51514;52.206;5.114;2023-11-18T13:17:58;4.38;;;1.98;;
64885;SDS011;51514;52.206;5.114;2023-11-18T13:20:27;2.65;;;1.52;;
64885;SDS011;51514;52.206;5.114;2023-11-18T13:22:54;2.53;;;1.70;;
64885;SDS011;51514;52.206;5.114;2023-11-18T13:25:21;2.72;;;1.90;;
64885;SDS011;51514;52.206;5.114;2023-11-18T13:27:49;3.03;;;1.88;;
64885;SDS011;51514;52.206;5.114;2023-11-18T13:30:15;3.00;;;1.85;;
64885;SDS011;51514;52.206;5.114;2023-11-18T13:32:42;2.47;;;1.73;;
64885;SDS011;51514;52.206;5.114;2023-11-18T13:35:08;5.55;;;2.05;;
64885;SDS011;51514;52.206;5.114;2023-11-18T13:37:36;2.10;;;1.63;;
64885;SDS011;51514;52.206;5.114;2023-11-18T13:40:01;2.78;;;1.60;;
64885;SDS011;51514;52.206;5.114;2023-11-18T13:45:00;2.97;;;1.60;;
64885;SDS011;51514;52.206;5.114;2023-11-18T13:47:34;2.17;;;1.45;;
64885;SDS011;51514;52.206;5.114;2023-11-18T13:49:59;2.28;;;1.30;;
64885;SDS011;51514;52.206;5.114;2023-11-18T13:52:25;3.05;;;1.75;;
64885;SDS011;51514;52.206;5.114;2023-11-18T13:54:51;3.78;;;1.60;;
64885;SDS011;51514;52.206;5.114;2023-11-18T13:59:47;2.30;;;1.35;;
64885;SDS011;51514;52.206;5.114;2023-11-18T14:02:14;2.65;;;1.52;;
64885;SDS011;51514;52.206;5.114;2023-11-18T14:04:41;3.17;;;2.10;;
64885;SDS011;51514;52.206;5.114;2023-11-18T14:07:09;2.40;;;1.73;;
64885;SDS011;51514;52.206;5.114;2023-11-18T14:09:35;3.60;;;1.75;;
64885;SDS011;51514;52.206;5.114;2023-11-18T14:12:01;1.98;;;1.30;;
64885;SDS011;51514;52.206;5.114;2023-11-18T14:14:28;3.05;;;1.50;;
64885;SDS011;51514;52.206;5.114;2023-11-18T14:16:53;1.67;;;1.35;;
64885;SDS011;51514;52.206;5.114;2023-11-18T14:19:22;3.72;;;1.50;;
64885;SDS011;51514;52.206;5.114;2023-11-18T14:21:49;2.55;;;1.23;;
64885;SDS011;51514;52.206;5.114;2023-11-18T14:24:15;2.35;;;1.40;;
64885;SDS011;51514;52.206;5.114;2023-11-18T14:26:41;2.55;;;1.20;;
64885;SDS011;51514;52.206;5.114;2023-11-18T14:29:06;2.97;;;1.23;;
64885;SDS011;51514;52.206;5.114;2023-11-18T14:31:32;1.52;;;1.08;;
64885;SDS011;51514;52.206;5.114;2023-11-18T14:34:00;1.90;;;1.40;;
64885;SDS011;51514;52.206;5.114;2023-11-18T14:36:26;1.85;;;1.23;;
64885;SDS011;51514;52.206;5.114;2023-11-18T14:38:51;2.53;;;1.42;;
64885;SDS011;51514;52.206;5.114;2023-11-18T14:41:17;2.20;;;1.27;;
64885;SDS011;51514;52.206;5.114;2023-11-18T14:43:45;1.83;;;1.27;;
64885;SDS011;51514;52.206;5.114;2023-11-18T14:46:10;1.58;;;1.15;;
64885;SDS011;51514;52.206;5.114;2023-11-18T14:48:36;2.50;;;1.55;;
64885;SDS011;51514;52.206;5.114;2023-11-18T14:51:01;1.90;;;1.38;;
64885;SDS011;51514;52.206;5.114;2023-11-18T14:53:26;1.70;;;1.17;;
64885;SDS011;51514;52.206;5.114;2023-11-18T14:55:52;1.50;;;1.20;;
64885;SDS011;51514;52.206;5.114;2023-11-18T14:58:17;2.03;;;1.23;;
64885;SDS011;51514;52.206;5.114;2023-11-18T15:00:43;2.28;;;1.08;;
64885;SDS011;51514;52.206;5.114;2023-11-18T15:03:12;2.13;;;1.30;;
64885;SDS011;51514;52.206;5.114;2023-11-18T15:05:37;3.17;;;1.23;;
64885;SDS011;51514;52.206;5.114;2023-11-18T15:08:03;1.55;;;1.00;;
64885;SDS011;51514;52.206;5.114;2023-11-18T15:10:34;1.63;;;1.00;;
64885;SDS011;51514;52.206;5.114;2023-11-18T15:13:02;3.15;;;1.25;;
64885;SDS011;51514;52.206;5.114;2023-11-18T15:15:28;1.10;;;0.80;;
64885;SDS011;51514;52.206;5.114;2023-11-18T15:17:59;1.67;;;1.02;;
64885;SDS011;51514;52.206;5.114;2023-11-18T15:20:28;1.27;;;1.02;;
64885;SDS011;51514;52.206;5.114;2023-11-18T15:22:54;1.25;;;1.15;;
64885;SDS011;51514;52.206;5.114;2023-11-18T15:25:20;1.40;;;1.00;;
64885;SDS011;51514;52.206;5.114;2023-11-18T15:27:45;1.55;;;1.00;;
64885;SDS011;51514;52.206;5.114;2023-11-18T15:30:12;1.45;;;1.10;;
64885;SDS011;51514;52.206;5.114;2023-11-18T15:32:38;1.05;;;0.90;;